createdAt,value
2017-08-25T00:01:16.806Z,19.50
2017-08-25T00:03:44.280Z,19.50
2017-08-25T00:06:11.731Z,19.50
2017-08-25T00:08:39.194Z,19.40
2017-08-25T00:11:06.661Z,19.40
2017-08-25T00:13:34.199Z,19.40
2017-08-25T00:16:01.616Z,19.40
2017-08-25T00:18:29.040Z,19.40
2017-08-25T00:20:56.573Z,19.40
2017-08-25T00:23:24.033Z,19.40
2017-08-25T00:25:51.473Z,19.40
2017-08-25T00:28:18.913Z,19.40
2017-08-25T00:30:46.397Z,19.30
2017-08-25T00:33:13.828Z,19.30
2017-08-25T00:35:41.258Z,19.30
2017-08-25T00:38:08.777Z,19.20
2017-08-25T00:40:36.401Z,19.20
2017-08-25T00:43:03.993Z,19.20
2017-08-25T00:45:31.455Z,19.10
2017-08-25T00:47:59.218Z,19.10
2017-08-25T00:50:26.981Z,19.10
2017-08-25T00:52:54.621Z,19.00
2017-08-25T00:55:22.848Z,19.00
2017-08-25T00:57:50.431Z,19.00
2017-08-25T01:00:17.916Z,19.00
2017-08-25T01:02:45.348Z,19.00
2017-08-25T01:05:12.931Z,18.90
2017-08-25T01:07:40.361Z,18.90
2017-08-25T01:10:07.794Z,18.90
2017-08-25T01:12:35.221Z,18.90
2017-08-25T01:15:02.658Z,18.90
2017-08-25T01:17:30.127Z,18.90
2017-08-25T01:19:57.564Z,18.90
2017-08-25T01:22:26.000Z,18.90
2017-08-25T01:24:53.508Z,18.90
2017-08-25T01:27:20.970Z,18.90
2017-08-25T01:29:49.151Z,18.90
2017-08-25T01:32:16.593Z,18.90
2017-08-25T01:34:44.145Z,18.90
2017-08-25T01:37:11.708Z,18.90
2017-08-25T01:39:39.138Z,19.00
2017-08-25T01:42:06.553Z,18.90
2017-08-25T01:44:33.989Z,18.90
2017-08-25T01:47:01.414Z,18.90
2017-08-25T01:49:28.844Z,18.90
2017-08-25T01:51:56.481Z,18.90
2017-08-25T01:54:23.926Z,18.80
2017-08-25T01:56:51.351Z,18.80
2017-08-25T01:59:18.811Z,18.70
2017-08-25T02:01:46.239Z,18.70
2017-08-25T02:04:13.694Z,18.70
2017-08-25T02:06:41.180Z,18.60
2017-08-25T02:09:08.610Z,18.60
2017-08-25T02:11:36.039Z,18.50
2017-08-25T02:14:03.557Z,18.50
2017-08-25T02:16:31.212Z,18.50
2017-08-25T02:18:58.739Z,18.50
2017-08-25T02:21:26.163Z,18.50
2017-08-25T02:23:53.693Z,18.40
2017-08-25T02:26:21.125Z,18.40
2017-08-25T02:28:48.549Z,18.40
2017-08-25T02:31:16.066Z,18.40
2017-08-25T02:33:43.713Z,18.40
2017-08-25T02:36:11.289Z,18.30
2017-08-25T02:38:38.724Z,18.40
2017-08-25T02:41:06.193Z,18.30
2017-08-25T02:43:33.831Z,18.30
2017-08-25T02:46:01.410Z,18.40
2017-08-25T02:48:28.846Z,18.40
2017-08-25T02:50:56.330Z,18.40
2017-08-25T02:53:23.965Z,18.40
2017-08-25T02:55:51.446Z,18.40
2017-08-25T02:58:18.886Z,18.50
2017-08-25T03:00:46.347Z,18.50
2017-08-25T03:03:13.784Z,18.40
2017-08-25T03:05:41.372Z,18.40
2017-08-25T03:08:08.804Z,18.40
2017-08-25T03:10:36.282Z,18.40
2017-08-25T03:13:04.033Z,18.40
2017-08-25T03:15:31.501Z,18.40
2017-08-25T03:17:59.257Z,18.30
2017-08-25T03:20:26.690Z,18.30
2017-08-25T03:22:54.109Z,18.30
2017-08-25T03:25:21.633Z,18.30
2017-08-25T03:27:49.064Z,18.30
2017-08-25T03:30:16.546Z,18.30
2017-08-25T03:32:44.304Z,18.30
2017-08-25T03:35:11.744Z,18.30
2017-08-25T03:37:39.166Z,18.20
2017-08-25T03:40:06.671Z,18.20
2017-08-25T03:42:34.138Z,18.20
2017-08-25T03:45:01.901Z,18.20
2017-08-25T03:47:29.324Z,18.20
2017-08-25T03:49:56.810Z,18.20
2017-08-25T03:52:24.260Z,18.20
2017-08-25T03:54:51.716Z,18.20
2017-08-25T03:57:19.178Z,18.20
2017-08-25T03:59:46.605Z,18.10
2017-08-25T04:02:14.036Z,18.10
2017-08-25T04:04:41.471Z,18.10
2017-08-25T04:07:08.901Z,18.00
2017-08-25T04:09:36.456Z,18.00
2017-08-25T04:12:03.882Z,18.00
2017-08-25T04:14:31.321Z,17.90
2017-08-25T04:16:58.830Z,17.90
2017-08-25T04:19:26.474Z,17.90
2017-08-25T04:21:53.950Z,17.90
2017-08-25T04:24:21.409Z,17.80
2017-08-25T04:26:48.961Z,17.80
2017-08-25T04:29:16.414Z,17.80
2017-08-25T04:31:43.850Z,17.70
2017-08-25T04:34:11.328Z,17.70
2017-08-25T04:36:38.758Z,17.80
2017-08-25T04:39:06.240Z,17.80
2017-08-25T04:41:33.945Z,17.80
2017-08-25T04:44:01.587Z,17.80
2017-08-25T04:46:29.125Z,17.80
2017-08-25T04:48:56.554Z,17.80
2017-08-25T04:51:23.985Z,17.70
2017-08-25T04:53:52.188Z,17.70
2017-08-25T04:56:19.626Z,17.70
2017-08-25T04:58:47.053Z,17.70
2017-08-25T05:01:14.482Z,17.60
2017-08-25T05:03:41.948Z,17.60
2017-08-25T05:06:09.489Z,17.60
2017-08-25T05:08:36.920Z,17.60
2017-08-25T05:11:04.352Z,17.60
2017-08-25T05:13:31.858Z,17.60
2017-08-25T05:15:59.313Z,17.60
2017-08-25T05:18:26.745Z,17.60
2017-08-25T05:20:54.182Z,17.60
2017-08-25T05:23:21.610Z,17.70
2017-08-25T05:25:49.053Z,17.70
2017-08-25T05:28:16.496Z,17.70
2017-08-25T05:30:44.009Z,17.70
2017-08-25T05:33:11.508Z,17.80
2017-08-25T05:35:38.964Z,17.80
2017-08-25T05:38:06.417Z,17.80
2017-08-25T05:40:33.844Z,17.80
2017-08-25T05:43:01.268Z,17.80
2017-08-25T05:45:28.784Z,17.80
2017-08-25T05:47:56.237Z,17.90
2017-08-25T05:50:23.681Z,17.80
2017-08-25T05:52:51.152Z,17.90
2017-08-25T05:55:18.621Z,17.90
2017-08-25T05:57:46.060Z,17.90
2017-08-25T06:00:13.520Z,17.90
2017-08-25T06:02:40.985Z,17.90
2017-08-25T06:05:08.604Z,17.90
2017-08-25T06:07:37.004Z,18.00
2017-08-25T06:10:04.559Z,17.90
2017-08-25T06:12:31.981Z,18.00
2017-08-25T06:14:59.400Z,18.00
2017-08-25T06:17:26.903Z,18.10
2017-08-25T06:19:54.408Z,18.10
2017-08-25T06:22:22.044Z,18.20
2017-08-25T06:24:49.632Z,18.20
2017-08-25T06:27:17.256Z,18.30
2017-08-25T06:29:44.840Z,18.30
2017-08-25T06:32:12.297Z,18.30
2017-08-25T06:34:39.933Z,18.40
2017-08-25T06:37:07.517Z,18.40
2017-08-25T06:39:34.972Z,18.50
2017-08-25T06:42:02.429Z,18.60
2017-08-25T06:44:29.874Z,18.60
2017-08-25T06:46:57.293Z,18.70
2017-08-25T06:49:24.804Z,18.70
2017-08-25T06:51:52.258Z,18.80
2017-08-25T06:54:19.885Z,18.80
2017-08-25T06:56:47.477Z,18.80
2017-08-25T06:59:15.243Z,18.90
2017-08-25T07:01:43.003Z,19.00
2017-08-25T07:04:10.457Z,19.00
2017-08-25T07:06:37.916Z,19.10
2017-08-25T07:09:05.682Z,19.10
2017-08-25T07:11:33.449Z,19.20
2017-08-25T07:14:01.072Z,19.20
2017-08-25T07:16:28.538Z,19.40
2017-08-25T07:18:55.997Z,19.50
2017-08-25T07:21:23.576Z,19.50
2017-08-25T07:23:51.328Z,19.50
2017-08-25T07:26:18.760Z,19.60
2017-08-25T07:28:46.188Z,19.60
2017-08-25T07:31:13.617Z,19.70
2017-08-25T07:33:41.057Z,19.70
2017-08-25T07:36:08.560Z,19.70
2017-08-25T07:38:36.073Z,19.80
2017-08-25T07:41:03.505Z,20.00
2017-08-25T07:43:30.941Z,20.00
2017-08-25T07:45:58.358Z,20.00
2017-08-25T07:48:25.890Z,20.10
2017-08-25T07:50:53.361Z,20.10
2017-08-25T07:53:20.990Z,20.20
2017-08-25T07:55:48.574Z,20.20
2017-08-25T07:58:16.001Z,20.40
2017-08-25T08:00:43.437Z,20.40
2017-08-25T08:03:10.945Z,20.50
2017-08-25T08:05:38.577Z,20.50
2017-08-25T08:08:06.165Z,20.60
2017-08-25T08:10:33.929Z,20.70
2017-08-25T08:13:01.344Z,20.70
2017-08-25T08:15:28.773Z,20.80
2017-08-25T08:17:56.215Z,20.80
2017-08-25T08:20:23.741Z,21.00
2017-08-25T08:22:51.167Z,21.10
2017-08-25T08:25:18.589Z,21.10
2017-08-25T08:27:46.023Z,21.10
2017-08-25T08:30:13.489Z,21.20
2017-08-25T08:32:41.346Z,21.30
2017-08-25T08:35:08.768Z,21.30
2017-08-25T08:37:36.201Z,21.30
2017-08-25T08:40:03.642Z,21.50
2017-08-25T08:42:31.162Z,21.50
2017-08-25T08:44:58.580Z,21.60
2017-08-25T08:47:26.085Z,21.60
2017-08-25T08:49:53.525Z,21.60
2017-08-25T08:52:20.999Z,21.70
2017-08-25T08:54:48.451Z,21.80
2017-08-25T08:57:15.909Z,21.90
2017-08-25T08:59:43.336Z,21.90
2017-08-25T09:02:10.812Z,22.00
2017-08-25T09:04:38.231Z,22.10
2017-08-25T09:07:05.729Z,22.20
2017-08-25T09:09:33.355Z,22.50
2017-08-25T09:12:00.957Z,22.30
2017-08-25T09:14:28.404Z,22.20
2017-08-25T09:16:55.853Z,22.20
2017-08-25T09:19:23.329Z,22.50
2017-08-25T09:21:51.085Z,22.60
2017-08-25T09:24:18.537Z,22.80
2017-08-25T09:26:45.998Z,22.90
2017-08-25T09:29:13.453Z,23.00
2017-08-25T09:31:40.895Z,23.00
2017-08-25T09:34:08.373Z,23.00
2017-08-25T09:36:35.818Z,23.10
2017-08-25T09:39:03.253Z,23.20
2017-08-25T09:41:30.673Z,23.30
2017-08-25T09:43:58.103Z,23.50
2017-08-25T09:46:25.649Z,23.60
2017-08-25T09:48:53.072Z,23.90
2017-08-25T09:51:20.565Z,24.10
2017-08-25T09:53:48.005Z,24.20
2017-08-25T09:56:15.427Z,24.20
2017-08-25T09:58:42.865Z,24.20
2017-08-25T10:01:10.285Z,24.20
2017-08-25T10:03:37.838Z,24.20
2017-08-25T10:06:05.293Z,24.50
2017-08-25T10:08:32.838Z,24.60
2017-08-25T10:11:00.509Z,24.40
2017-08-25T10:13:27.969Z,24.40
2017-08-25T10:15:55.433Z,24.50
2017-08-25T10:18:23.199Z,24.80
2017-08-25T10:20:50.636Z,24.90
2017-08-25T10:23:18.097Z,24.90
2017-08-25T10:25:45.533Z,25.10
2017-08-25T10:28:13.021Z,25.10
2017-08-25T10:30:40.469Z,25.10
2017-08-25T10:33:19.797Z,25.40
2017-08-25T10:35:59.349Z,25.30
2017-08-25T10:38:38.777Z,25.50
2017-08-25T10:41:18.121Z,25.30
2017-08-25T10:43:57.409Z,25.60
2017-08-25T10:46:25.112Z,26.10
2017-08-25T10:48:52.737Z,26.30
2017-08-25T10:51:20.319Z,26.50
2017-08-25T10:53:47.780Z,26.70
2017-08-25T10:56:15.241Z,26.40
2017-08-25T10:58:42.660Z,26.40
2017-08-25T11:01:10.101Z,26.70
2017-08-25T11:03:37.618Z,26.40
2017-08-25T11:06:05.066Z,26.50
2017-08-25T11:08:32.534Z,26.50
2017-08-25T11:10:59.977Z,26.60
2017-08-25T11:13:27.441Z,26.60
2017-08-25T11:15:54.897Z,26.60
2017-08-25T11:18:22.347Z,27.00
2017-08-25T11:20:49.804Z,27.20
2017-08-25T11:23:17.256Z,27.00
2017-08-25T11:25:44.711Z,27.20
2017-08-25T11:28:12.173Z,27.80
2017-08-25T11:30:39.619Z,28.10
2017-08-25T11:33:07.050Z,28.20
2017-08-25T11:35:35.160Z,28.20
2017-08-25T11:38:02.592Z,28.10
2017-08-25T11:40:30.020Z,28.30
2017-08-25T11:42:57.437Z,28.70
2017-08-25T11:45:24.873Z,28.90
2017-08-25T11:47:52.437Z,28.90
2017-08-25T11:50:20.076Z,28.90
2017-08-25T11:52:47.502Z,28.90
2017-08-25T11:55:15.123Z,29.00
2017-08-25T11:57:42.750Z,29.10
2017-08-25T12:00:10.173Z,29.10
2017-08-25T12:02:37.705Z,29.40
2017-08-25T12:05:05.241Z,29.40
2017-08-25T12:07:32.700Z,29.40
2017-08-25T12:10:00.137Z,29.60
2017-08-25T12:12:27.614Z,29.70
2017-08-25T12:14:55.380Z,29.80
2017-08-25T12:17:22.821Z,29.90
2017-08-25T12:19:50.281Z,30.00
2017-08-25T12:22:17.756Z,30.10
2017-08-25T12:24:45.195Z,30.40
2017-08-25T12:27:12.621Z,30.40
2017-08-25T12:29:40.113Z,30.60
2017-08-25T12:32:07.573Z,30.50
2017-08-25T12:34:35.029Z,30.70
2017-08-25T12:37:02.661Z,30.90
2017-08-25T12:39:30.256Z,31.10
2017-08-25T12:41:57.678Z,31.30
2017-08-25T12:44:25.180Z,31.60
2017-08-25T12:46:52.788Z,31.80
2017-08-25T12:49:20.268Z,32.00
2017-08-25T12:51:47.848Z,32.20
2017-08-25T12:54:15.282Z,32.50
2017-08-25T12:56:42.717Z,33.00
2017-08-25T12:59:10.145Z,33.70
2017-08-25T13:01:37.580Z,34.30
2017-08-25T13:04:05.002Z,34.70
2017-08-25T13:06:32.580Z,35.20
2017-08-25T13:09:00.025Z,35.60
2017-08-25T13:11:27.462Z,36.00
2017-08-25T13:13:54.932Z,36.30
2017-08-25T13:16:22.363Z,36.60
2017-08-25T13:18:49.782Z,36.80
2017-08-25T13:21:17.231Z,37.10
2017-08-25T13:23:44.658Z,37.30
2017-08-25T13:26:12.081Z,37.50
2017-08-25T13:28:39.674Z,37.50
2017-08-25T13:31:07.133Z,36.90
2017-08-25T13:33:34.601Z,36.60
2017-08-25T13:36:02.101Z,36.30
2017-08-25T13:38:29.525Z,36.00
2017-08-25T13:40:56.953Z,35.70
2017-08-25T13:43:24.385Z,35.40
2017-08-25T13:45:51.884Z,35.00
2017-08-25T13:48:19.509Z,34.70
2017-08-25T13:50:47.105Z,34.40
2017-08-25T13:53:14.744Z,34.10
2017-08-25T13:55:42.301Z,33.80
2017-08-25T13:58:09.731Z,33.70
2017-08-25T14:00:37.216Z,33.60
2017-08-25T14:03:04.629Z,33.40
2017-08-25T14:05:32.056Z,33.30
2017-08-25T14:07:59.584Z,33.30
2017-08-25T14:10:27.017Z,33.30
2017-08-25T14:12:54.450Z,33.20
2017-08-25T14:15:21.882Z,33.10
2017-08-25T14:17:49.425Z,33.00
2017-08-25T14:20:17.059Z,32.90
2017-08-25T14:22:44.646Z,32.80
2017-08-25T14:25:12.275Z,32.80
2017-08-25T14:27:39.784Z,33.00
2017-08-25T14:30:07.317Z,33.20
2017-08-25T14:32:34.746Z,33.60
2017-08-25T14:35:02.162Z,33.90
2017-08-25T14:37:29.627Z,34.20
2017-08-25T14:39:58.068Z,34.50
2017-08-25T14:42:25.521Z,34.70
2017-08-25T14:44:53.157Z,34.90
2017-08-25T14:47:20.743Z,34.90
2017-08-25T14:49:48.198Z,34.90
2017-08-25T14:52:15.966Z,34.80
2017-08-25T14:54:43.714Z,34.80
2017-08-25T14:57:11.175Z,34.70
2017-08-25T14:59:38.593Z,34.50
2017-08-25T15:02:06.086Z,34.30
2017-08-25T15:04:33.513Z,34.40
2017-08-25T15:07:01.010Z,34.50
2017-08-25T15:09:28.641Z,34.70
2017-08-25T15:11:56.228Z,34.80
2017-08-25T15:14:23.861Z,34.60
2017-08-25T15:16:51.442Z,34.40
2017-08-25T15:19:18.868Z,34.30
2017-08-25T15:21:46.293Z,34.20
2017-08-25T15:24:13.722Z,34.30
2017-08-25T15:26:41.267Z,34.50
2017-08-25T15:29:08.905Z,34.40
2017-08-25T15:31:36.389Z,34.20
2017-08-25T15:34:03.932Z,34.10
2017-08-25T15:36:31.405Z,34.00
2017-08-25T15:38:59.157Z,33.90
2017-08-25T15:41:26.622Z,33.80
2017-08-25T15:43:54.067Z,33.60
2017-08-25T15:46:21.496Z,33.60
2017-08-25T15:48:48.922Z,33.40
2017-08-25T15:51:16.344Z,33.20
2017-08-25T15:53:43.769Z,33.10
2017-08-25T15:56:11.356Z,33.00
2017-08-25T15:58:38.985Z,32.90
2017-08-25T16:01:06.445Z,32.70
2017-08-25T16:03:34.032Z,32.60
2017-08-25T16:06:01.465Z,32.40
2017-08-25T16:08:28.881Z,32.30
2017-08-25T16:10:56.305Z,32.20
2017-08-25T16:13:23.852Z,32.10
2017-08-25T16:15:51.308Z,32.00
2017-08-25T16:18:18.725Z,31.90
2017-08-25T16:20:46.157Z,31.80
2017-08-25T16:23:13.585Z,31.70
2017-08-25T16:25:41.141Z,31.60
2017-08-25T16:28:08.599Z,31.50
2017-08-25T16:30:36.362Z,31.40
2017-08-25T16:33:03.981Z,31.20
2017-08-25T16:35:32.390Z,30.90
2017-08-25T16:37:59.808Z,30.80
2017-08-25T16:40:27.280Z,29.80
2017-08-25T16:42:54.777Z,29.30
2017-08-25T16:45:22.214Z,28.80
2017-08-25T16:47:49.695Z,28.20
2017-08-25T16:50:17.240Z,27.60
2017-08-25T16:52:44.877Z,27.40
2017-08-25T16:55:12.358Z,27.60
2017-08-25T16:57:39.916Z,27.20
2017-08-25T17:00:07.344Z,27.60
2017-08-25T17:02:34.823Z,27.80
2017-08-25T17:05:02.248Z,27.50
2017-08-25T17:07:29.732Z,27.50
2017-08-25T17:09:57.170Z,27.60
2017-08-25T17:12:24.826Z,27.50
2017-08-25T17:14:52.276Z,27.30
2017-08-25T17:17:19.792Z,27.30
2017-08-25T17:19:47.331Z,27.20
2017-08-25T17:22:15.093Z,27.20
2017-08-25T17:24:42.521Z,27.10
2017-08-25T17:27:09.943Z,27.00
2017-08-25T17:29:37.373Z,27.00
2017-08-25T17:32:04.829Z,26.80
2017-08-25T17:34:32.260Z,26.70
2017-08-25T17:36:59.829Z,26.70
2017-08-25T17:39:27.583Z,26.70
2017-08-25T17:41:55.056Z,26.60
2017-08-25T17:44:22.820Z,26.50
2017-08-25T17:46:50.278Z,26.40
2017-08-25T17:49:17.729Z,26.30
2017-08-25T17:51:45.185Z,26.20
2017-08-25T17:54:12.837Z,26.10
2017-08-25T17:56:40.305Z,26.00
2017-08-25T17:59:07.764Z,26.00
2017-08-25T18:01:35.189Z,25.80
2017-08-25T18:04:02.764Z,25.80
2017-08-25T18:06:30.394Z,25.80
2017-08-25T18:08:57.957Z,25.70
2017-08-25T18:11:25.381Z,25.60
2017-08-25T18:13:52.825Z,25.60
2017-08-25T18:16:20.344Z,25.50
2017-08-25T18:18:47.805Z,25.40
2017-08-25T18:21:15.220Z,25.30
2017-08-25T18:23:42.745Z,25.30
2017-08-25T18:26:10.481Z,25.20
2017-08-25T18:28:37.933Z,25.10
2017-08-25T18:31:05.402Z,25.00
2017-08-25T18:33:32.846Z,25.00
2017-08-25T18:36:00.310Z,24.90
2017-08-25T18:38:27.773Z,24.90
2017-08-25T18:40:55.537Z,24.80
2017-08-25T18:43:22.975Z,24.70
2017-08-25T18:45:50.448Z,24.70
2017-08-25T18:48:17.917Z,24.60
2017-08-25T18:50:45.344Z,24.60
2017-08-25T18:53:12.760Z,24.60
2017-08-25T18:55:40.201Z,24.60
2017-08-25T18:58:07.722Z,24.50
2017-08-25T19:00:35.182Z,24.40
2017-08-25T19:03:02.705Z,24.50
2017-08-25T19:05:30.309Z,24.50
2017-08-25T19:07:57.843Z,24.40
2017-08-25T19:10:25.314Z,24.40
2017-08-25T19:12:53.076Z,24.30
2017-08-25T19:15:20.525Z,24.20
2017-08-25T19:17:47.986Z,24.20
2017-08-25T19:20:15.424Z,24.20
2017-08-25T19:22:42.898Z,24.20
2017-08-25T19:25:10.659Z,24.20
2017-08-25T19:27:38.429Z,23.90
2017-08-25T19:30:05.878Z,23.80
2017-08-25T19:32:33.342Z,23.80
2017-08-25T19:35:01.101Z,23.80
2017-08-25T19:37:28.754Z,23.80
2017-08-25T19:39:56.251Z,23.70
2017-08-25T19:42:23.680Z,23.60
2017-08-25T19:44:51.125Z,23.90
2017-08-25T19:47:18.600Z,23.90
2017-08-25T19:49:46.066Z,23.80
2017-08-25T19:52:13.505Z,23.80
2017-08-25T19:54:40.970Z,23.80
2017-08-25T19:57:08.508Z,23.80
2017-08-25T19:59:35.937Z,23.80
2017-08-25T20:02:03.366Z,23.80
2017-08-25T20:04:30.881Z,23.80
2017-08-25T20:06:58.331Z,23.70
2017-08-25T20:09:25.775Z,23.70
2017-08-25T20:11:53.257Z,23.60
2017-08-25T20:14:20.700Z,23.60
2017-08-25T20:16:48.167Z,23.60
2017-08-25T20:19:15.923Z,23.60
2017-08-25T20:21:43.386Z,23.50
2017-08-25T20:24:10.849Z,23.60
2017-08-25T20:26:38.305Z,23.50
2017-08-25T20:29:05.765Z,23.50
2017-08-25T20:31:33.219Z,23.40
2017-08-25T20:34:00.905Z,23.30
2017-08-25T20:36:28.359Z,23.30
2017-08-25T20:38:55.793Z,23.30
2017-08-25T20:41:23.251Z,23.20
2017-08-25T20:43:50.701Z,23.10
2017-08-25T20:46:18.148Z,23.10
2017-08-25T20:48:45.625Z,23.00
2017-08-25T20:51:13.160Z,23.10
2017-08-25T20:53:40.684Z,23.10
2017-08-25T20:56:08.295Z,23.10
2017-08-25T20:58:35.730Z,23.10
2017-08-25T21:01:03.301Z,23.10
2017-08-25T21:03:31.058Z,23.10
2017-08-25T21:05:58.518Z,23.10
2017-08-25T21:08:25.937Z,23.10
2017-08-25T21:10:53.426Z,23.10
2017-08-25T21:13:20.882Z,23.10
2017-08-25T21:15:48.317Z,23.00
2017-08-25T21:18:15.804Z,23.00
2017-08-25T21:20:43.243Z,22.90
2017-08-25T21:23:10.710Z,22.80
2017-08-25T21:25:38.154Z,22.90
2017-08-25T21:28:05.573Z,22.90
2017-08-25T21:30:33.085Z,22.90
2017-08-25T21:33:00.536Z,22.90
2017-08-25T21:35:27.982Z,22.80
2017-08-25T21:37:55.420Z,22.90
2017-08-25T21:40:22.901Z,23.00
2017-08-25T21:42:50.336Z,23.00
2017-08-25T21:45:17.765Z,23.00
2017-08-25T21:47:45.184Z,23.00
2017-08-25T21:50:12.733Z,22.90
2017-08-25T21:52:40.483Z,22.90
2017-08-25T21:55:07.909Z,22.90
2017-08-25T21:57:35.400Z,22.90
2017-08-25T22:00:02.861Z,22.80
2017-08-25T22:02:30.303Z,22.70
2017-08-25T22:04:57.772Z,22.70
2017-08-25T22:07:25.241Z,22.80
2017-08-25T22:09:52.865Z,22.80
2017-08-25T22:12:20.302Z,22.80
2017-08-25T22:14:48.829Z,22.80
2017-08-25T22:17:16.284Z,22.70
2017-08-25T22:19:43.733Z,22.70
2017-08-25T22:22:11.166Z,22.80
2017-08-25T22:24:38.662Z,22.80
2017-08-25T22:27:06.287Z,22.80
2017-08-25T22:29:33.716Z,22.70
2017-08-25T22:32:01.337Z,22.70
2017-08-25T22:34:28.776Z,22.70
2017-08-25T22:36:56.213Z,22.70
2017-08-25T22:39:23.644Z,22.60
2017-08-25T22:41:51.064Z,22.60
2017-08-25T22:44:18.504Z,22.50
2017-08-25T22:46:45.969Z,22.50
2017-08-25T22:49:13.440Z,22.60
2017-08-25T22:51:41.003Z,22.60
2017-08-25T22:54:08.757Z,22.50
2017-08-25T22:56:36.186Z,22.40
2017-08-25T22:59:03.621Z,22.40
2017-08-25T23:01:31.106Z,22.30
2017-08-25T23:03:58.540Z,22.30
2017-08-25T23:06:25.978Z,22.20
2017-08-25T23:08:53.423Z,22.10
2017-08-25T23:11:20.840Z,22.10
2017-08-25T23:13:48.389Z,22.10
2017-08-25T23:16:15.807Z,22.10
2017-08-25T23:18:43.312Z,22.00
2017-08-25T23:21:11.068Z,22.00
2017-08-25T23:23:38.525Z,21.90
2017-08-25T23:26:06.161Z,21.90
2017-08-25T23:28:33.646Z,21.90
2017-08-25T23:31:01.129Z,21.90
2017-08-25T23:33:28.568Z,21.90
2017-08-25T23:35:56.117Z,21.90
2017-08-25T23:38:23.564Z,21.80
2017-08-25T23:40:50.979Z,21.70
2017-08-25T23:43:18.423Z,21.60
2017-08-25T23:45:45.841Z,21.60
2017-08-25T23:48:13.269Z,21.60
2017-08-25T23:50:40.700Z,21.50
2017-08-25T23:53:08.217Z,21.50
2017-08-25T23:55:36.069Z,21.50
2017-08-25T23:58:03.530Z,21.60
